Terminal Aerodrome Forecast
Issued by NWS

Home | Current Version | Previous Version | Text Only | Print | Product List | Glossary On
Versions: 1 2 3 4 5 6 7 8 9 10 11 12 13
000
FTUS42 TJSJ 210500 RRA
TAFJMZ
TAF
TJMZ 210544Z 2106/2206 VRB05KT P6SM FEW020
     FM211430 05010KT P6SM SCT030
      TEMPO 2117/2120 VRB15KT 4SM TSRA BKN030CB
     FM212230 07012KT P6SM VCSH SCT020 BKN040
      AMD NOT SKED TIL 211100=

USA.gov is the U.S. government's official web portal to all federal, state and local government web resources and services.